Terminal Aerodrome Forecast
Issued by NWS Paducah, KY

Home | Current Version | Previous Version | Text Only | Print | Product List | Glossary On
Versions: 1 2 3 4 5 6 7 8 9 10 11 12
000
FTUS43 KPAH 211722
TAFEVV
TAF
KEVV 211722Z 2118/2218 09009KT P6SM SCT250
     FM220000 07007KT P6SM BKN150
     FM221000 08008KT P6SM VCSH SCT050 BKN080 PROB30 2212/2218 -SHRA
      BKN050=

USA.gov is the U.S. government's official web portal to all federal, state and local government web resources and services.